Arbuckle, California
Current Conditions -  °F | °C
As of 2:53 AM on Monday 22 Dec 2014 (Local Time) from KMYV Reporting Station
Overcast Overcast  
Wind Chill: 56°   Ceiling: 1700
Heat Index: 56°   Visibility: 8mi
Dew Point: 54°   Wind: 6mph
Humidity: 93%   Direction: 330°NNW
Pressure: 30.26"   Gusts: NA
Location:  39.02°N, 122.06°W
Report Text: KMYV 221053Z AUTO 33005KT 8SM OVC017 13/12 A3026 RMK AO2 SLP251 T01330122
Loading
Personal Weather Stations






























Interactive Weather Map New forecast layout! Learn more

10-Day Weather Forecast

Advertisements
Track Severe Weather on mobile